createdAt,value
2023-05-08T00:02:18.645Z,8.28
2023-05-08T00:04:45.272Z,8.24
2023-05-08T00:07:12.558Z,8.24
2023-05-08T00:12:28.977Z,8.23
2023-05-08T00:14:56.296Z,8.18
2023-05-08T00:17:23.103Z,8.06
2023-05-08T00:19:49.838Z,8.17
2023-05-08T00:22:16.442Z,8.18
2023-05-08T00:24:42.998Z,8.20
2023-05-08T00:27:09.529Z,8.14
2023-05-08T00:29:36.789Z,8.04
2023-05-08T00:32:03.362Z,8.09
2023-05-08T00:34:29.918Z,8.15
2023-05-08T00:36:56.760Z,7.96
2023-05-08T00:39:23.330Z,8.06
2023-05-08T00:41:50.125Z,8.14
2023-05-08T00:44:17.727Z,8.13
2023-05-08T00:46:45.646Z,7.87
2023-05-08T00:49:14.571Z,8.08
2023-05-08T00:51:43.390Z,8.08
2023-05-08T00:54:10.812Z,8.09
2023-05-08T00:56:38.357Z,7.72
2023-05-08T00:59:09.993Z,7.90
2023-05-08T01:01:37.993Z,7.97
2023-05-08T01:04:05.348Z,8.06
2023-05-08T01:06:31.977Z,7.99
2023-05-08T01:08:58.822Z,7.97
2023-05-08T01:11:29.095Z,8.04
2023-05-08T01:14:26.572Z,7.93
2023-05-08T01:17:02.272Z,8.02
2023-05-08T01:19:34.815Z,8.11
2023-05-08T01:22:28.049Z,8.01
2023-05-08T01:25:06.726Z,8.00
2023-05-08T01:27:55.187Z,7.97
2023-05-08T01:31:06.740Z,7.93
2023-05-08T01:34:09.192Z,7.91
2023-05-08T01:36:46.157Z,7.91
2023-05-08T01:39:42.051Z,7.90
2023-05-08T01:42:13.909Z,7.87
2023-05-08T01:44:54.681Z,7.90
2023-05-08T01:47:25.991Z,7.77
2023-05-08T01:50:08.896Z,7.73
2023-05-08T01:52:47.329Z,7.89
2023-05-08T01:55:21.338Z,7.91
2023-05-08T01:57:52.080Z,7.90
2023-05-08T02:00:22.259Z,7.65
2023-05-08T02:02:51.252Z,7.93
2023-05-08T02:05:21.165Z,7.87
2023-05-08T02:07:49.673Z,7.87
2023-05-08T02:10:18.515Z,7.93
2023-05-08T02:12:46.939Z,7.64
2023-05-08T02:15:16.334Z,7.68
2023-05-08T02:17:46.048Z,7.71
2023-05-08T02:20:15.339Z,7.84
2023-05-08T02:22:48.431Z,7.51
2023-05-08T02:25:16.252Z,7.78
2023-05-08T02:27:45.734Z,7.83
2023-05-08T02:30:17.505Z,7.71
2023-05-08T02:32:46.183Z,7.55
2023-05-08T02:35:15.753Z,7.41
2023-05-08T02:37:49.468Z,7.72
2023-05-08T02:40:17.494Z,7.75
2023-05-08T02:42:45.104Z,7.55
2023-05-08T02:45:12.422Z,7.46
2023-05-08T02:48:07.554Z,7.66
2023-05-08T02:51:08.715Z,7.71
2023-05-08T02:53:40.877Z,7.62
2023-05-08T02:56:22.107Z,7.43
2023-05-08T02:59:20.371Z,7.68
2023-05-08T03:02:04.040Z,7.76
2023-05-08T03:04:36.580Z,7.74
2023-05-08T03:07:04.742Z,7.76
2023-05-08T03:09:39.081Z,7.74
2023-05-08T03:12:11.384Z,7.49
2023-05-08T03:14:47.061Z,7.54
2023-05-08T03:17:17.156Z,7.53
2023-05-08T03:19:47.794Z,7.76
2023-05-08T03:22:16.142Z,7.76
2023-05-08T03:24:45.278Z,7.55
2023-05-08T03:27:13.310Z,7.38
2023-05-08T03:29:40.140Z,7.44
2023-05-08T03:32:07.953Z,7.66
2023-05-08T03:34:36.156Z,7.64
2023-05-08T03:37:03.418Z,7.67
2023-05-08T03:39:29.981Z,7.63
2023-05-08T03:41:56.986Z,7.73
2023-05-08T03:44:25.901Z,7.70
2023-05-08T03:46:55.840Z,7.76
2023-05-08T03:51:56.018Z,7.62
2023-05-08T03:54:25.660Z,7.75
2023-05-08T03:56:54.470Z,7.74
2023-05-08T03:59:43.320Z,7.78
2023-05-08T04:02:21.705Z,7.60
2023-05-08T04:04:55.659Z,7.76
2023-05-08T04:07:35.907Z,7.83
2023-05-08T04:10:27.521Z,7.87
2023-05-08T04:12:59.881Z,7.90
2023-05-08T04:15:30.980Z,7.88
2023-05-08T04:18:00.513Z,7.98
2023-05-08T04:20:29.374Z,8.01
2023-05-08T04:22:57.860Z,8.07
2023-05-08T04:25:25.976Z,8.02
2023-05-08T04:27:53.325Z,8.08
2023-05-08T04:30:20.456Z,7.96
2023-05-08T04:32:48.032Z,8.00
2023-05-08T04:35:14.908Z,7.97
2023-05-08T04:37:43.606Z,8.01
2023-05-08T04:40:10.924Z,8.05
2023-05-08T04:42:39.554Z,8.16
2023-05-08T04:45:07.164Z,8.02
2023-05-08T04:47:33.779Z,8.07
2023-05-08T04:50:02.239Z,7.88
2023-05-08T04:52:29.521Z,8.29
2023-05-08T04:54:56.083Z,8.20
2023-05-08T04:57:22.679Z,8.18
2023-05-08T04:59:49.286Z,8.20
2023-05-08T05:02:15.865Z,8.00
2023-05-08T05:04:42.447Z,8.25
2023-05-08T05:07:09.002Z,8.30
2023-05-08T05:09:37.165Z,8.26
2023-05-08T05:12:07.284Z,8.45
2023-05-08T05:14:34.204Z,8.50
2023-05-08T05:17:00.982Z,7.86
2023-05-08T05:19:27.584Z,8.50
2023-05-08T05:21:54.117Z,8.52
2023-05-08T05:24:20.704Z,8.48
2023-05-08T05:26:47.246Z,8.51
2023-05-08T05:29:13.803Z,8.66
2023-05-08T05:31:40.416Z,8.55
2023-05-08T05:34:07.317Z,8.37
2023-05-08T05:36:34.051Z,8.40
2023-05-08T05:39:00.935Z,8.55
2023-05-08T05:41:27.522Z,8.53
2023-05-08T05:43:54.136Z,8.47
2023-05-08T05:46:20.713Z,8.48
2023-05-08T05:48:47.398Z,8.43
2023-05-08T05:51:13.964Z,8.51
2023-05-08T05:53:40.549Z,8.56
2023-05-08T05:56:07.424Z,8.49
2023-05-08T05:58:34.429Z,8.53
2023-05-08T06:01:03.944Z,8.49
2023-05-08T06:03:30.778Z,8.62
2023-05-08T06:05:57.559Z,8.64
2023-05-08T06:08:24.395Z,8.38
2023-05-08T06:10:50.983Z,8.52
2023-05-08T06:13:17.646Z,9.00
2023-05-08T06:15:45.136Z,8.89
2023-05-08T06:18:12.053Z,8.66
2023-05-08T06:20:39.448Z,8.95
2023-05-08T06:23:06.322Z,8.75
2023-05-08T06:25:33.028Z,8.96
2023-05-08T06:27:59.894Z,9.06
2023-05-08T06:30:26.483Z,9.06
2023-05-08T06:32:53.043Z,8.87
2023-05-08T06:35:19.924Z,9.04
2023-05-08T06:37:49.273Z,9.02
2023-05-08T06:40:19.031Z,9.18
2023-05-08T06:42:46.266Z,9.22
2023-05-08T06:45:13.139Z,9.19
2023-05-08T06:47:39.958Z,9.48
2023-05-08T06:50:07.151Z,9.28
2023-05-08T06:52:33.796Z,9.60
2023-05-08T06:55:00.398Z,9.29
2023-05-08T06:57:29.242Z,9.82
2023-05-08T06:59:56.835Z,9.28
2023-05-08T07:02:23.652Z,9.66
2023-05-08T07:04:50.242Z,10.01
2023-05-08T07:07:16.857Z,9.49
2023-05-08T07:09:43.387Z,9.93
2023-05-08T07:12:09.990Z,9.82
2023-05-08T07:14:36.938Z,9.87
2023-05-08T07:17:07.676Z,10.15
2023-05-08T07:19:36.529Z,10.32
2023-05-08T07:22:03.435Z,10.20
2023-05-08T07:24:30.192Z,10.42
2023-05-08T07:26:57.310Z,10.16
2023-05-08T07:29:24.065Z,9.77
2023-05-08T07:31:52.113Z,9.65
2023-05-08T07:34:18.844Z,10.02
2023-05-08T07:36:45.584Z,10.22
2023-05-08T07:39:12.201Z,10.26
2023-05-08T07:41:40.989Z,10.26
2023-05-08T07:44:08.513Z,10.81
2023-05-08T07:46:35.359Z,10.33
2023-05-08T07:49:01.988Z,10.46
2023-05-08T07:51:29.667Z,10.16
2023-05-08T07:53:56.378Z,10.54
2023-05-08T07:56:23.151Z,10.90
2023-05-08T07:58:53.696Z,10.86
2023-05-08T08:01:20.374Z,11.48
2023-05-08T08:03:47.326Z,11.14
2023-05-08T08:06:14.459Z,10.88
2023-05-08T08:08:41.068Z,10.86
2023-05-08T08:11:07.724Z,10.98
2023-05-08T08:13:41.868Z,11.60
2023-05-08T08:16:08.495Z,12.38
2023-05-08T08:18:36.435Z,12.49
2023-05-08T08:21:07.535Z,12.72
2023-05-08T08:23:34.789Z,12.72
2023-05-08T08:26:01.472Z,12.73
2023-05-08T08:28:28.096Z,14.77
2023-05-08T08:30:55.158Z,14.37
2023-05-08T08:33:21.727Z,13.94
2023-05-08T08:35:48.408Z,15.57
2023-05-08T08:38:15.619Z,15.25
2023-05-08T08:40:43.329Z,15.48
2023-05-08T08:43:09.958Z,15.65
2023-05-08T08:45:37.548Z,15.08
2023-05-08T08:48:07.324Z,15.65
2023-05-08T08:50:36.420Z,16.36
2023-05-08T08:53:32.222Z,15.27
2023-05-08T08:56:02.264Z,17.26
2023-05-08T08:58:38.117Z,18.36
2023-05-08T09:01:07.761Z,17.81
2023-05-08T09:03:34.485Z,18.32
2023-05-08T09:06:01.785Z,19.77
2023-05-08T09:08:28.840Z,18.60
2023-05-08T09:10:56.401Z,18.42
2023-05-08T09:13:23.111Z,19.65
2023-05-08T09:15:52.471Z,19.28
2023-05-08T09:18:19.351Z,19.85
2023-05-08T09:20:46.568Z,18.91
2023-05-08T09:23:14.906Z,20.16
2023-05-08T09:25:45.949Z,19.40
2023-05-08T09:28:34.778Z,19.44
2023-05-08T09:31:02.510Z,20.74
2023-05-08T09:33:29.653Z,20.23
2023-05-08T09:35:57.534Z,21.16
2023-05-08T09:38:30.453Z,20.07
2023-05-08T09:41:12.649Z,19.95
2023-05-08T09:43:39.460Z,21.71
2023-05-08T09:46:26.495Z,21.04
2023-05-08T09:48:55.890Z,21.26
2023-05-08T09:51:23.858Z,21.06
2023-05-08T09:53:54.368Z,20.71
2023-05-08T09:56:34.151Z,20.21
2023-05-08T09:59:03.390Z,19.17
2023-05-08T10:01:36.992Z,20.04
2023-05-08T10:04:05.749Z,19.76
2023-05-08T10:06:32.760Z,20.86
2023-05-08T10:09:15.991Z,20.27
2023-05-08T10:11:52.951Z,20.21
2023-05-08T10:14:20.587Z,19.83
2023-05-08T10:16:49.258Z,18.68
2023-05-08T10:19:18.308Z,18.47
2023-05-08T10:21:48.324Z,18.60
2023-05-08T10:24:25.984Z,20.14
2023-05-08T10:27:06.748Z,21.31
2023-05-08T10:29:43.323Z,20.63
2023-05-08T10:32:10.760Z,18.88
2023-05-08T10:34:40.632Z,20.49
2023-05-08T10:37:11.094Z,20.13
2023-05-08T10:39:38.760Z,19.34
2023-05-08T10:42:05.406Z,20.33
2023-05-08T10:44:32.014Z,22.47
2023-05-08T10:47:07.739Z,21.54
2023-05-08T10:49:56.357Z,20.73
2023-05-08T10:52:43.942Z,22.43
2023-05-08T10:55:30.473Z,21.63
2023-05-08T10:58:07.034Z,20.35
2023-05-08T11:00:53.476Z,21.11
2023-05-08T11:03:31.518Z,20.79
2023-05-08T11:06:00.205Z,21.32
2023-05-08T11:08:28.824Z,20.70
2023-05-08T11:11:06.429Z,20.74
2023-05-08T11:13:44.350Z,20.89
2023-05-08T11:16:11.236Z,21.73
2023-05-08T11:18:49.078Z,22.42
2023-05-08T11:21:23.773Z,22.79
2023-05-08T11:23:58.232Z,22.70
2023-05-08T11:26:42.653Z,21.06
2023-05-08T11:29:18.426Z,21.52
2023-05-08T11:31:52.151Z,20.89
2023-05-08T11:34:44.017Z,22.02
2023-05-08T11:37:18.314Z,21.31
2023-05-08T11:39:45.008Z,22.04
2023-05-08T11:42:29.821Z,21.82
2023-05-08T11:45:04.527Z,21.69
2023-05-08T11:47:37.626Z,23.40
2023-05-08T11:50:04.328Z,21.58
2023-05-08T11:52:36.091Z,22.05
2023-05-08T11:55:08.592Z,21.56
2023-05-08T11:57:35.361Z,22.63
2023-05-08T12:00:12.764Z,22.07
2023-05-08T12:02:43.918Z,22.98
2023-05-08T12:05:11.789Z,22.50
2023-05-08T12:07:46.647Z,21.50
2023-05-08T12:10:15.041Z,20.80
2023-05-08T12:12:44.189Z,20.50
2023-05-08T12:15:15.436Z,20.99
2023-05-08T12:17:43.286Z,21.23
2023-05-08T12:20:18.215Z,20.75
2023-05-08T12:22:53.663Z,20.80
2023-05-08T12:25:20.508Z,21.22
2023-05-08T12:27:47.462Z,21.09
2023-05-08T12:30:15.287Z,21.45
2023-05-08T12:32:46.375Z,21.31
2023-05-08T12:35:14.135Z,22.00
2023-05-08T12:37:40.810Z,22.08
2023-05-08T12:40:08.661Z,20.64
2023-05-08T12:42:44.547Z,20.71
2023-05-08T12:45:18.885Z,21.17
2023-05-08T12:47:47.412Z,21.51
2023-05-08T12:50:19.755Z,22.16
2023-05-08T12:52:48.838Z,22.52
2023-05-08T12:55:37.905Z,22.45
2023-05-08T12:58:15.052Z,20.96
2023-05-08T13:00:47.487Z,21.03
2023-05-08T13:03:23.946Z,21.16
2023-05-08T13:05:50.656Z,21.50
2023-05-08T13:08:17.524Z,21.54
2023-05-08T13:10:50.890Z,21.77
2023-05-08T13:13:22.936Z,21.48
2023-05-08T13:15:51.531Z,21.73
2023-05-08T13:18:19.411Z,20.57
2023-05-08T13:20:46.392Z,20.59
2023-05-08T13:23:13.583Z,20.33
2023-05-08T13:25:43.033Z,21.22
2023-05-08T13:28:10.803Z,20.81
2023-05-08T13:30:37.990Z,20.33
2023-05-08T13:33:05.371Z,19.78
2023-05-08T13:35:32.911Z,19.46
2023-05-08T13:37:59.834Z,19.91
2023-05-08T13:40:26.697Z,20.13
2023-05-08T13:42:53.909Z,20.13
2023-05-08T13:45:20.556Z,20.37
2023-05-08T13:47:48.553Z,20.21
2023-05-08T13:50:16.705Z,20.39
2023-05-08T13:52:43.334Z,19.73
2023-05-08T13:55:12.241Z,19.93
2023-05-08T13:57:39.748Z,19.98
2023-05-08T14:00:07.609Z,19.91
2023-05-08T14:02:34.533Z,20.17
2023-05-08T14:05:01.238Z,19.77
2023-05-08T14:07:28.210Z,20.37
2023-05-08T14:09:54.897Z,19.98
2023-05-08T14:12:21.427Z,19.69
2023-05-08T14:14:48.037Z,19.92
2023-05-08T14:17:14.542Z,20.15
2023-05-08T14:19:41.196Z,19.95
2023-05-08T14:22:07.725Z,20.35
2023-05-08T14:24:35.114Z,19.82
2023-05-08T14:27:05.799Z,19.97
2023-05-08T14:29:34.239Z,20.12
2023-05-08T14:32:01.302Z,20.09
2023-05-08T14:34:28.168Z,20.27
2023-05-08T14:36:55.010Z,19.77
2023-05-08T14:39:21.708Z,20.00
2023-05-08T14:42:05.773Z,19.69
2023-05-08T14:44:35.179Z,19.74
2023-05-08T14:47:01.770Z,19.50
2023-05-08T14:49:37.365Z,19.35
2023-05-08T14:52:05.647Z,19.37
2023-05-08T14:54:32.350Z,19.47
2023-05-08T14:56:59.189Z,19.16
2023-05-08T14:59:25.734Z,19.31
2023-05-08T15:01:52.357Z,19.56
2023-05-08T15:04:19.283Z,19.23
2023-05-08T15:06:46.178Z,19.33
2023-05-08T15:09:12.810Z,19.13
2023-05-08T15:11:39.510Z,18.92
2023-05-08T15:14:06.229Z,18.92
2023-05-08T15:16:32.884Z,18.89
2023-05-08T15:18:59.450Z,19.05
2023-05-08T15:21:26.865Z,19.17
2023-05-08T15:23:55.283Z,19.10
2023-05-08T15:26:22.917Z,19.20
2023-05-08T15:28:49.800Z,19.17
2023-05-08T15:31:16.950Z,19.42
2023-05-08T15:33:45.197Z,19.83
2023-05-08T15:36:13.568Z,19.42
2023-05-08T15:38:41.238Z,19.49
2023-05-08T15:41:07.904Z,19.68
2023-05-08T15:43:34.464Z,19.50
2023-05-08T15:46:01.174Z,18.34
2023-05-08T15:48:27.837Z,19.31
2023-05-08T15:50:54.653Z,19.22
2023-05-08T15:53:21.197Z,19.50
2023-05-08T15:55:47.800Z,19.21
2023-05-08T15:58:14.502Z,19.21
2023-05-08T16:00:45.217Z,19.31
2023-05-08T16:03:12.637Z,19.02
2023-05-08T16:05:39.619Z,18.85
2023-05-08T16:08:07.533Z,18.82
2023-05-08T16:10:34.433Z,18.72
2023-05-08T16:13:01.056Z,18.74
2023-05-08T16:15:27.898Z,18.04
2023-05-08T16:17:54.623Z,18.41
2023-05-08T16:20:21.302Z,18.89
2023-05-08T16:22:47.912Z,18.86
2023-05-08T16:25:14.695Z,18.95
2023-05-08T16:27:41.478Z,18.79
2023-05-08T16:30:08.681Z,18.69
2023-05-08T16:32:35.375Z,18.41
2023-05-08T16:35:02.024Z,18.68
2023-05-08T16:37:28.664Z,19.03
2023-05-08T16:39:55.229Z,18.84
2023-05-08T16:42:21.785Z,18.81
2023-05-08T16:44:48.384Z,18.86
2023-05-08T16:47:15.020Z,18.95
2023-05-08T16:49:41.682Z,18.61
2023-05-08T16:52:08.352Z,18.84
2023-05-08T16:54:35.054Z,19.17
2023-05-08T16:57:01.872Z,18.88
2023-05-08T16:59:28.453Z,18.70
2023-05-08T17:01:55.416Z,18.99
2023-05-08T17:04:22.028Z,19.04
2023-05-08T17:06:48.646Z,18.93
2023-05-08T17:09:18.493Z,18.56
2023-05-08T17:11:45.338Z,18.66
2023-05-08T17:14:11.901Z,18.62
2023-05-08T17:16:38.772Z,18.60
2023-05-08T17:19:05.330Z,18.58
2023-05-08T17:21:32.167Z,18.69
2023-05-08T17:24:02.145Z,18.78
2023-05-08T17:26:31.998Z,18.29
2023-05-08T17:28:58.565Z,18.40
2023-05-08T17:31:25.717Z,18.43
2023-05-08T17:33:52.384Z,18.32
2023-05-08T17:36:18.948Z,18.24
2023-05-08T17:38:46.466Z,18.07
2023-05-08T17:41:14.087Z,18.23
2023-05-08T17:43:40.735Z,18.24
2023-05-08T17:46:07.971Z,17.85
2023-05-08T17:48:35.231Z,18.16
2023-05-08T17:51:03.220Z,17.87
2023-05-08T17:53:33.157Z,17.98
2023-05-08T17:55:59.760Z,17.59
2023-05-08T17:58:26.757Z,17.73
2023-05-08T18:00:54.036Z,17.80
2023-05-08T18:03:20.828Z,17.58
2023-05-08T18:05:47.696Z,17.80
2023-05-08T18:08:14.323Z,17.81
2023-05-08T18:10:41.018Z,17.75
2023-05-08T18:13:08.002Z,17.74
2023-05-08T18:15:39.059Z,17.34
2023-05-08T18:18:05.855Z,17.35
2023-05-08T18:20:32.481Z,17.36
2023-05-08T18:22:59.038Z,17.12
2023-05-08T18:25:25.638Z,17.25
2023-05-08T18:27:52.206Z,17.19
2023-05-08T18:30:18.832Z,17.12
2023-05-08T18:32:45.465Z,17.02
2023-05-08T18:35:12.100Z,16.95
2023-05-08T18:37:38.622Z,17.07
2023-05-08T18:40:05.788Z,16.97
2023-05-08T18:42:32.316Z,16.93
2023-05-08T18:45:00.910Z,16.91
2023-05-08T18:47:27.578Z,16.86
2023-05-08T18:49:54.199Z,16.79
2023-05-08T18:52:20.783Z,16.71
2023-05-08T18:54:47.309Z,16.77
2023-05-08T18:57:13.908Z,16.71
2023-05-08T18:59:40.569Z,16.68
2023-05-08T19:02:07.182Z,16.57
2023-05-08T19:04:33.748Z,16.63
2023-05-08T19:07:01.005Z,16.67
2023-05-08T19:09:27.679Z,16.67
2023-05-08T19:11:54.398Z,16.70
2023-05-08T19:14:21.060Z,16.74
2023-05-08T19:16:47.657Z,16.56
2023-05-08T19:19:14.239Z,16.52
2023-05-08T19:21:40.779Z,16.47
2023-05-08T19:24:07.869Z,16.41
2023-05-08T19:26:34.476Z,16.45
2023-05-08T19:29:01.013Z,16.40
2023-05-08T19:31:27.594Z,16.27
2023-05-08T19:33:54.875Z,16.29
2023-05-08T19:36:21.494Z,16.26
2023-05-08T19:38:48.886Z,16.26
2023-05-08T19:41:17.309Z,15.98
2023-05-08T19:43:43.852Z,16.13
2023-05-08T19:46:10.582Z,16.00
2023-05-08T19:48:37.634Z,15.97
2023-05-08T19:51:08.760Z,15.84
2023-05-08T19:53:35.879Z,15.73
2023-05-08T19:56:02.592Z,15.77
2023-05-08T19:58:29.471Z,15.70
2023-05-08T20:00:56.317Z,15.42
2023-05-08T20:03:23.412Z,15.52
2023-05-08T20:05:53.208Z,15.39
2023-05-08T20:08:20.197Z,15.30
2023-05-08T20:10:49.582Z,15.27
2023-05-08T20:13:17.262Z,15.27
2023-05-08T20:15:43.917Z,15.17
2023-05-08T20:18:10.686Z,15.05
2023-05-08T20:20:37.213Z,15.03
2023-05-08T20:23:04.392Z,15.00
2023-05-08T20:25:31.225Z,14.34
2023-05-08T20:27:57.992Z,14.88
2023-05-08T20:30:24.599Z,14.86
2023-05-08T20:32:51.504Z,14.54
2023-05-08T20:35:18.334Z,14.48
2023-05-08T20:37:46.311Z,14.63
2023-05-08T20:40:13.896Z,14.44
2023-05-08T20:42:41.287Z,14.42
2023-05-08T20:45:08.910Z,14.42
2023-05-08T20:47:35.956Z,14.45
2023-05-08T20:50:03.397Z,14.22
2023-05-08T20:52:32.248Z,14.36
2023-05-08T20:54:59.610Z,14.18
2023-05-08T20:57:26.431Z,14.35
2023-05-08T20:59:53.048Z,14.31
2023-05-08T21:02:19.612Z,14.25
2023-05-08T21:04:46.332Z,14.26
2023-05-08T21:07:13.133Z,14.24
2023-05-08T21:09:39.748Z,14.21
2023-05-08T21:12:06.758Z,14.15
2023-05-08T21:14:34.990Z,14.11
2023-05-08T21:17:01.659Z,14.04
2023-05-08T21:19:28.269Z,13.81
2023-05-08T21:21:54.865Z,13.61
2023-05-08T21:24:21.608Z,13.54
2023-05-08T21:26:48.148Z,13.56
2023-05-08T21:29:14.929Z,13.20
2023-05-08T21:31:41.987Z,13.33
2023-05-08T21:34:08.756Z,13.06
2023-05-08T21:36:35.432Z,12.99
2023-05-08T21:39:02.881Z,12.88
2023-05-08T21:41:29.464Z,12.97
2023-05-08T21:43:56.334Z,12.70
2023-05-08T21:46:22.971Z,12.44
2023-05-08T21:48:49.588Z,12.45
2023-05-08T21:51:16.183Z,12.32
2023-05-08T21:53:42.712Z,12.24
2023-05-08T21:56:09.298Z,12.18
2023-05-08T21:58:35.887Z,12.26
2023-05-08T22:01:02.597Z,12.23
2023-05-08T22:03:29.476Z,12.07
2023-05-08T22:05:56.257Z,12.12
2023-05-08T22:08:22.878Z,12.02
2023-05-08T22:10:50.484Z,11.94
2023-05-08T22:13:17.382Z,11.89
2023-05-08T22:15:44.040Z,11.93
2023-05-08T22:18:10.531Z,11.71
2023-05-08T22:20:38.368Z,12.03
2023-05-08T22:23:04.932Z,11.85
2023-05-08T22:25:31.924Z,11.96
2023-05-08T22:27:58.667Z,12.06
2023-05-08T22:30:25.244Z,12.00
2023-05-08T22:32:57.297Z,12.07
2023-05-08T22:35:25.297Z,12.05
2023-05-08T22:37:53.003Z,11.98
2023-05-08T22:40:20.430Z,11.97
2023-05-08T22:42:47.540Z,11.84
2023-05-08T22:45:14.584Z,11.90
2023-05-08T22:47:41.592Z,11.80
2023-05-08T22:50:09.239Z,11.41
2023-05-08T22:52:36.354Z,11.36
2023-05-08T22:55:03.197Z,11.59
2023-05-08T22:57:29.867Z,11.46
2023-05-08T22:59:56.477Z,11.30
2023-05-08T23:02:23.318Z,11.23
2023-05-08T23:04:49.923Z,11.15
2023-05-08T23:07:16.827Z,11.05
2023-05-08T23:09:43.335Z,11.07
2023-05-08T23:12:09.936Z,11.12
2023-05-08T23:14:36.485Z,10.87
2023-05-08T23:17:03.088Z,10.92
2023-05-08T23:19:29.647Z,10.91
2023-05-08T23:21:56.440Z,10.94
2023-05-08T23:24:22.932Z,10.85
2023-05-08T23:26:49.835Z,10.63
2023-05-08T23:29:16.409Z,10.60
2023-05-08T23:31:43.010Z,10.60
2023-05-08T23:34:09.515Z,10.48
2023-05-08T23:36:36.065Z,10.35
2023-05-08T23:39:02.632Z,10.37
2023-05-08T23:41:29.429Z,10.06
2023-05-08T23:43:56.316Z,10.19
2023-05-08T23:46:24.931Z,10.02
2023-05-08T23:48:51.453Z,10.12
2023-05-08T23:51:18.250Z,9.91
2023-05-08T23:53:44.756Z,10.07
2023-05-08T23:56:11.365Z,10.11
2023-05-08T23:58:38.114Z,9.70
